Weston Mills, New York
Current Conditions -  °F | °C
As of 4:15 AM on Wednesday 28 Jan 2015 (Local Time) from KOLE Reporting Station
Clear Clear  
Wind Chill: -5°   Ceiling: Unl
Heat Index:   Visibility: 10mi
Dew Point:   Wind: 9mph
Humidity: 100%   Direction: 300°WNW
Pressure: 30"   Gusts: NA
Location:  42.0612°N, 78.3788°W
Report Text: KOLE 280915Z AUTO 30008KT 10SM CLR M13/M13 A3000 RMK AO2
Loading
Personal Weather Stations






























Interactive Weather Map New forecast layout! Learn more

10-Day Weather Forecast

Advertisements
Track Severe Weather on mobile